sensor_id;sensor_type;location;lat;lon;timestamp;P1;durP1;ratioP1;P2;durP2;ratioP2
33714;SDS011;20043;50.998;4.754;2022-12-18T21:34:26;64.85;;;29.88;;
33714;SDS011;20043;50.998;4.754;2022-12-18T21:36:54;61.25;;;30.20;;
33714;SDS011;20043;50.998;4.754;2022-12-18T21:39:21;71.28;;;30.35;;
33714;SDS011;20043;50.998;4.754;2022-12-18T21:41:48;65.45;;;29.63;;
33714;SDS011;20043;50.998;4.754;2022-12-18T21:44:32;59.35;;;28.55;;
33714;SDS011;20043;50.998;4.754;2022-12-18T21:46:58;68.00;;;30.83;;
33714;SDS011;20043;50.998;4.754;2022-12-18T21:49:24;60.38;;;30.13;;
33714;SDS011;20043;50.998;4.754;2022-12-18T21:51:51;62.08;;;29.75;;
33714;SDS011;20043;50.998;4.754;2022-12-18T21:54:18;64.50;;;30.42;;
33714;SDS011;20043;50.998;4.754;2022-12-18T21:56:48;60.20;;;29.05;;
33714;SDS011;20043;50.998;4.754;2022-12-18T21:59:18;61.00;;;29.20;;
33714;SDS011;20043;50.998;4.754;2022-12-18T22:01:44;64.00;;;29.73;;
33714;SDS011;20043;50.998;4.754;2022-12-18T22:04:10;68.53;;;31.02;;
33714;SDS011;20043;50.998;4.754;2022-12-18T22:06:36;58.33;;;30.25;;
33714;SDS011;20043;50.998;4.754;2022-12-18T22:09:02;61.25;;;29.00;;
33714;SDS011;20043;50.998;4.754;2022-12-18T22:11:28;63.20;;;29.83;;
33714;SDS011;20043;50.998;4.754;2022-12-18T22:13:54;59.10;;;28.80;;
33714;SDS011;20043;50.998;4.754;2022-12-18T22:16:20;73.70;;;31.73;;
33714;SDS011;20043;50.998;4.754;2022-12-18T22:18:45;62.10;;;31.13;;
33714;SDS011;20043;50.998;4.754;2022-12-18T22:23:51;61.55;;;29.80;;
33714;SDS011;20043;50.998;4.754;2022-12-18T22:26:18;64.60;;;30.88;;
33714;SDS011;20043;50.998;4.754;2022-12-18T22:28:44;66.57;;;30.30;;
33714;SDS011;20043;50.998;4.754;2022-12-18T22:31:28;66.80;;;30.50;;
33714;SDS011;20043;50.998;4.754;2022-12-18T22:33:54;66.68;;;30.08;;
33714;SDS011;20043;50.998;4.754;2022-12-18T22:36:19;67.88;;;31.83;;
33714;SDS011;20043;50.998;4.754;2022-12-18T22:38:45;71.38;;;31.13;;
33714;SDS011;20043;50.998;4.754;2022-12-18T22:41:11;60.45;;;29.08;;
33714;SDS011;20043;50.998;4.754;2022-12-18T22:43:36;67.55;;;29.63;;
33714;SDS011;20043;50.998;4.754;2022-12-18T22:46:02;73.00;;;29.92;;
33714;SDS011;20043;50.998;4.754;2022-12-18T22:48:27;69.32;;;31.50;;
33714;SDS011;20043;50.998;4.754;2022-12-18T22:50:54;64.05;;;29.02;;
33714;SDS011;20043;50.998;4.754;2022-12-18T22:53:19;65.80;;;29.98;;
33714;SDS011;20043;50.998;4.754;2022-12-18T22:55:45;69.53;;;30.05;;
33714;SDS011;20043;50.998;4.754;2022-12-18T22:58:11;64.57;;;30.20;;
33714;SDS011;20043;50.998;4.754;2022-12-18T23:00:36;64.45;;;29.40;;
33714;SDS011;20043;50.998;4.754;2022-12-18T23:03:02;60.22;;;29.90;;
33714;SDS011;20043;50.998;4.754;2022-12-18T23:05:28;61.70;;;29.17;;
33714;SDS011;20043;50.998;4.754;2022-12-18T23:07:54;67.55;;;28.90;;
33714;SDS011;20043;50.998;4.754;2022-12-18T23:10:20;59.92;;;29.42;;
33714;SDS011;20043;50.998;4.754;2022-12-18T23:12:46;64.22;;;29.08;;
33714;SDS011;20043;50.998;4.754;2022-12-18T23:15:12;60.85;;;29.23;;
33714;SDS011;20043;50.998;4.754;2022-12-18T23:17:37;62.78;;;29.27;;
33714;SDS011;20043;50.998;4.754;2022-12-18T23:20:03;62.45;;;28.38;;
33714;SDS011;20043;50.998;4.754;2022-12-18T23:22:29;67.28;;;28.75;;
33714;SDS011;20043;50.998;4.754;2022-12-18T23:24:54;63.28;;;28.38;;
33714;SDS011;20043;50.998;4.754;2022-12-18T23:27:20;62.72;;;29.40;;
33714;SDS011;20043;50.998;4.754;2022-12-18T23:29:45;60.08;;;29.55;;
33714;SDS011;20043;50.998;4.754;2022-12-18T23:32:11;59.60;;;27.80;;
33714;SDS011;20043;50.998;4.754;2022-12-18T23:34:36;63.28;;;28.23;;
33714;SDS011;20043;50.998;4.754;2022-12-18T23:37:02;61.67;;;28.35;;
33714;SDS011;20043;50.998;4.754;2022-12-18T23:39:28;59.95;;;28.23;;
33714;SDS011;20043;50.998;4.754;2022-12-18T23:41:54;60.63;;;28.55;;
33714;SDS011;20043;50.998;4.754;2022-12-18T23:44:19;60.95;;;27.88;;
33714;SDS011;20043;50.998;4.754;2022-12-18T23:46:45;58.33;;;27.75;;
33714;SDS011;20043;50.998;4.754;2022-12-18T23:49:10;64.22;;;27.73;;
33714;SDS011;20043;50.998;4.754;2022-12-18T23:51:36;53.97;;;27.05;;
33714;SDS011;20043;50.998;4.754;2022-12-18T23:54:02;59.50;;;27.33;;
33714;SDS011;20043;50.998;4.754;2022-12-18T23:56:28;59.53;;;27.98;;
33714;SDS011;20043;50.998;4.754;2022-12-18T23:58:54;58.53;;;27.42;;
